sensor_id;sensor_type;location;lat;lon;timestamp;temperature;humidity
69054;DHT22;56125;52.242;4.756;2024-02-23T00:00:16;18.50;56.90
69054;DHT22;56125;52.242;4.756;2024-02-23T00:05:19;18.50;56.50
69054;DHT22;56125;52.242;4.756;2024-02-23T00:10:20;18.50;56.40
69054;DHT22;56125;52.242;4.756;2024-02-23T00:15:21;17.80;55.90
69054;DHT22;56125;52.242;4.756;2024-02-23T00:20:22;18.50;56.30
69054;DHT22;56125;52.242;4.756;2024-02-23T00:25:23;18.50;56.00
69054;DHT22;56125;52.242;4.756;2024-02-23T00:30:25;18.50;56.00
69054;DHT22;56125;52.242;4.756;2024-02-23T00:35:26;18.50;55.80
69054;DHT22;56125;52.242;4.756;2024-02-23T00:40:27;18.50;55.60
69054;DHT22;56125;52.242;4.756;2024-02-23T00:45:28;18.60;55.60
69054;DHT22;56125;52.242;4.756;2024-02-23T00:50:29;18.70;55.50
69054;DHT22;56125;52.242;4.756;2024-02-23T00:55:30;18.70;55.40
69054;DHT22;56125;52.242;4.756;2024-02-23T01:00:31;18.60;55.20
69054;DHT22;56125;52.242;4.756;2024-02-23T01:05:34;18.70;55.10
69054;DHT22;56125;52.242;4.756;2024-02-23T01:10:35;18.60;54.90
69054;DHT22;56125;52.242;4.756;2024-02-23T01:15:36;18.70;54.80
69054;DHT22;56125;52.242;4.756;2024-02-23T01:20:37;18.70;54.60
69054;DHT22;56125;52.242;4.756;2024-02-23T01:25:38;18.80;54.40
69054;DHT22;56125;52.242;4.756;2024-02-23T01:30:40;18.70;54.20
69054;DHT22;56125;52.242;4.756;2024-02-23T01:35:41;18.80;54.20
69054;DHT22;56125;52.242;4.756;2024-02-23T01:40:42;18.40;53.70
69054;DHT22;56125;52.242;4.756;2024-02-23T01:45:43;18.80;53.90
69054;DHT22;56125;52.242;4.756;2024-02-23T01:50:44;18.80;53.60
69054;DHT22;56125;52.242;4.756;2024-02-23T01:55:46;18.90;53.70
69054;DHT22;56125;52.242;4.756;2024-02-23T02:00:48;18.90;53.40
69054;DHT22;56125;52.242;4.756;2024-02-23T02:05:50;18.90;53.30
69054;DHT22;56125;52.242;4.756;2024-02-23T02:10:53;18.90;52.90
69054;DHT22;56125;52.242;4.756;2024-02-23T02:15:54;18.90;53.00
69054;DHT22;56125;52.242;4.756;2024-02-23T02:20:56;19.00;52.80
69054;DHT22;56125;52.242;4.756;2024-02-23T02:25:58;19.00;52.70
69054;DHT22;56125;52.242;4.756;2024-02-23T02:30:59;19.00;52.70
69054;DHT22;56125;52.242;4.756;2024-02-23T02:36:00;19.10;52.50
69054;DHT22;56125;52.242;4.756;2024-02-23T02:41:01;19.10;52.50
69054;DHT22;56125;52.242;4.756;2024-02-23T02:46:03;19.70;52.40
69054;DHT22;56125;52.242;4.756;2024-02-23T02:51:04;18.70;51.90
69054;DHT22;56125;52.242;4.756;2024-02-23T02:56:07;19.20;52.10
69054;DHT22;56125;52.242;4.756;2024-02-23T03:01:09;19.20;51.90
69054;DHT22;56125;52.242;4.756;2024-02-23T03:06:10;19.30;52.00
69054;DHT22;56125;52.242;4.756;2024-02-23T03:11:11;19.20;51.70
69054;DHT22;56125;52.242;4.756;2024-02-23T03:16:17;19.30;51.70
69054;DHT22;56125;52.242;4.756;2024-02-23T03:21:18;19.30;51.70
69054;DHT22;56125;52.242;4.756;2024-02-23T03:26:19;19.30;51.50
69054;DHT22;56125;52.242;4.756;2024-02-23T03:31:20;19.30;52.20
69054;DHT22;56125;52.242;4.756;2024-02-23T03:36:21;19.30;51.20
69054;DHT22;56125;52.242;4.756;2024-02-23T03:41:22;19.30;51.30
69054;DHT22;56125;52.242;4.756;2024-02-23T03:46:23;19.40;51.30
69054;DHT22;56125;52.242;4.756;2024-02-23T03:51:24;19.30;51.10
69054;DHT22;56125;52.242;4.756;2024-02-23T03:56:25;19.40;51.30
69054;DHT22;56125;52.242;4.756;2024-02-23T04:01:26;19.40;51.00
69054;DHT22;56125;52.242;4.756;2024-02-23T04:06:27;19.40;51.00
69054;DHT22;56125;52.242;4.756;2024-02-23T04:11:28;19.40;50.90
69054;DHT22;56125;52.242;4.756;2024-02-23T04:16:29;19.30;50.70
69054;DHT22;56125;52.242;4.756;2024-02-23T04:21:30;19.40;51.80
69054;DHT22;56125;52.242;4.756;2024-02-23T04:26:31;19.40;50.90
69054;DHT22;56125;52.242;4.756;2024-02-23T04:31:32;19.40;50.70
69054;DHT22;56125;52.242;4.756;2024-02-23T04:36:33;19.40;50.70
69054;DHT22;56125;52.242;4.756;2024-02-23T04:41:34;19.40;50.50
69054;DHT22;56125;52.242;4.756;2024-02-23T04:46:35;19.40;50.40
69054;DHT22;56125;52.242;4.756;2024-02-23T04:51:36;19.40;50.60
69054;DHT22;56125;52.242;4.756;2024-02-23T04:56:38;19.30;50.40
69054;DHT22;56125;52.242;4.756;2024-02-23T05:01:39;19.10;50.20
69054;DHT22;56125;52.242;4.756;2024-02-23T05:06:40;19.40;50.40
69054;DHT22;56125;52.242;4.756;2024-02-23T05:11:41;20.10;50.70
69054;DHT22;56125;52.242;4.756;2024-02-23T05:16:42;19.30;49.90
69054;DHT22;56125;52.242;4.756;2024-02-23T05:21:43;19.30;50.30
69054;DHT22;56125;52.242;4.756;2024-02-23T05:26:44;19.60;50.30
69054;DHT22;56125;52.242;4.756;2024-02-23T05:31:50;19.30;50.30
69054;DHT22;56125;52.242;4.756;2024-02-23T05:36:52;18.90;50.00
69054;DHT22;56125;52.242;4.756;2024-02-23T05:41:53;19.30;50.00
69054;DHT22;56125;52.242;4.756;2024-02-23T05:46:54;19.30;50.10
69054;DHT22;56125;52.242;4.756;2024-02-23T05:51:55;19.20;50.00
69054;DHT22;56125;52.242;4.756;2024-02-23T05:56:56;19.20;49.90
69054;DHT22;56125;52.242;4.756;2024-02-23T06:01:57;19.20;50.00
69054;DHT22;56125;52.242;4.756;2024-02-23T06:06:58;19.10;50.00
69054;DHT22;56125;52.242;4.756;2024-02-23T06:11:59;19.10;50.50
69054;DHT22;56125;52.242;4.756;2024-02-23T06:17:01;19.10;50.10
69054;DHT22;56125;52.242;4.756;2024-02-23T06:22:02;19.10;49.90
69054;DHT22;56125;52.242;4.756;2024-02-23T06:27:03;19.00;50.00
69054;DHT22;56125;52.242;4.756;2024-02-23T06:32:05;19.00;50.20
69054;DHT22;56125;52.242;4.756;2024-02-23T06:37:06;19.00;50.00
69054;DHT22;56125;52.242;4.756;2024-02-23T06:42:07;19.00;50.20
69054;DHT22;56125;52.242;4.756;2024-02-23T06:47:11;18.90;50.10
69054;DHT22;56125;52.242;4.756;2024-02-23T06:52:12;18.90;49.90
69054;DHT22;56125;52.242;4.756;2024-02-23T06:57:13;18.90;50.10
69054;DHT22;56125;52.242;4.756;2024-02-23T07:02:14;18.90;50.30
69054;DHT22;56125;52.242;4.756;2024-02-23T07:07:15;18.80;50.00
69054;DHT22;56125;52.242;4.756;2024-02-23T07:12:16;18.80;50.40
69054;DHT22;56125;52.242;4.756;2024-02-23T07:17:18;18.70;49.90
69054;DHT22;56125;52.242;4.756;2024-02-23T07:22:19;18.70;50.20
69054;DHT22;56125;52.242;4.756;2024-02-23T07:27:21;18.70;50.30
69054;DHT22;56125;52.242;4.756;2024-02-23T07:32:22;18.70;50.30
69054;DHT22;56125;52.242;4.756;2024-02-23T07:37:26;18.50;50.10
69054;DHT22;56125;52.242;4.756;2024-02-23T07:42:27;18.60;50.20
69054;DHT22;56125;52.242;4.756;2024-02-23T07:47:29;18.60;50.20
69054;DHT22;56125;52.242;4.756;2024-02-23T07:52:30;19.00;50.30
69054;DHT22;56125;52.242;4.756;2024-02-23T07:57:31;18.60;50.10
69054;DHT22;56125;52.242;4.756;2024-02-23T08:02:32;18.50;49.80
69054;DHT22;56125;52.242;4.756;2024-02-23T08:07:33;18.50;50.00
69054;DHT22;56125;52.242;4.756;2024-02-23T08:12:34;18.40;49.90
69054;DHT22;56125;52.242;4.756;2024-02-23T08:17:35;18.40;50.40
69054;DHT22;56125;52.242;4.756;2024-02-23T08:22:38;18.40;49.70
69054;DHT22;56125;52.242;4.756;2024-02-23T08:27:40;18.40;50.20
69054;DHT22;56125;52.242;4.756;2024-02-23T08:32:42;18.40;50.60
69054;DHT22;56125;52.242;4.756;2024-02-23T08:37:43;19.10;51.70
69054;DHT22;56125;52.242;4.756;2024-02-23T08:42:44;17.80;51.30
69054;DHT22;56125;52.242;4.756;2024-02-23T08:47:45;18.20;52.50
69054;DHT22;56125;52.242;4.756;2024-02-23T08:52:46;18.40;51.70
69054;DHT22;56125;52.242;4.756;2024-02-23T08:57:47;18.40;52.30
69054;DHT22;56125;52.242;4.756;2024-02-23T09:02:48;18.40;51.90
69054;DHT22;56125;52.242;4.756;2024-02-23T09:07:50;18.40;51.60
69054;DHT22;56125;52.242;4.756;2024-02-23T09:12:52;18.40;51.60
69054;DHT22;56125;52.242;4.756;2024-02-23T09:17:53;18.30;51.20
69054;DHT22;56125;52.242;4.756;2024-02-23T09:22:54;18.30;51.10
69054;DHT22;56125;52.242;4.756;2024-02-23T09:27:58;18.30;51.00
69054;DHT22;56125;52.242;4.756;2024-02-23T09:32:59;18.30;50.90
69054;DHT22;56125;52.242;4.756;2024-02-23T09:38:00;18.30;51.90
69054;DHT22;56125;52.242;4.756;2024-02-23T09:43:02;18.20;50.80
69054;DHT22;56125;52.242;4.756;2024-02-23T09:48:04;18.20;51.00
69054;DHT22;56125;52.242;4.756;2024-02-23T09:53:07;18.20;50.90
69054;DHT22;56125;52.242;4.756;2024-02-23T09:58:13;18.20;51.10
69054;DHT22;56125;52.242;4.756;2024-02-23T10:03:15;18.20;51.10
69054;DHT22;56125;52.242;4.756;2024-02-23T10:08:17;18.20;50.80
69054;DHT22;56125;52.242;4.756;2024-02-23T10:13:19;18.20;50.80
69054;DHT22;56125;52.242;4.756;2024-02-23T10:18:21;18.20;52.20
69054;DHT22;56125;52.242;4.756;2024-02-23T10:23:22;19.00;55.40
69054;DHT22;56125;52.242;4.756;2024-02-23T10:28:23;18.20;55.30
69054;DHT22;56125;52.242;4.756;2024-02-23T10:33:24;18.10;55.60
69054;DHT22;56125;52.242;4.756;2024-02-23T10:38:31;18.20;55.70
69054;DHT22;56125;52.242;4.756;2024-02-23T10:43:46;18.20;56.20
69054;DHT22;56125;52.242;4.756;2024-02-23T10:48:48;18.20;56.60
69054;DHT22;56125;52.242;4.756;2024-02-23T10:53:50;18.20;56.90
69054;DHT22;56125;52.242;4.756;2024-02-23T10:58:53;18.00;56.80
69054;DHT22;56125;52.242;4.756;2024-02-23T11:03:54;18.20;57.30
69054;DHT22;56125;52.242;4.756;2024-02-23T11:09:05;18.20;57.70
69054;DHT22;56125;52.242;4.756;2024-02-23T11:14:08;18.20;57.80
69054;DHT22;56125;52.242;4.756;2024-02-23T11:19:12;18.20;57.80
69054;DHT22;56125;52.242;4.756;2024-02-23T11:24:15;18.00;58.10
69054;DHT22;56125;52.242;4.756;2024-02-23T11:29:18;18.20;58.00
69054;DHT22;56125;52.242;4.756;2024-02-23T11:34:23;18.30;57.80
69054;DHT22;56125;52.242;4.756;2024-02-23T11:39:26;18.30;57.80
69054;DHT22;56125;52.242;4.756;2024-02-23T11:44:28;18.30;58.40
69054;DHT22;56125;52.242;4.756;2024-02-23T11:49:30;18.30;58.10
69054;DHT22;56125;52.242;4.756;2024-02-23T11:54:31;18.30;58.10
69054;DHT22;56125;52.242;4.756;2024-02-23T11:59:32;18.30;59.30
69054;DHT22;56125;52.242;4.756;2024-02-23T12:04:33;18.30;58.40
69054;DHT22;56125;52.242;4.756;2024-02-23T12:09:35;18.30;58.40
69054;DHT22;56125;52.242;4.756;2024-02-23T12:14:36;18.30;58.60
69054;DHT22;56125;52.242;4.756;2024-02-23T12:19:38;18.30;58.40
69054;DHT22;56125;52.242;4.756;2024-02-23T12:24:43;18.30;58.40
69054;DHT22;56125;52.242;4.756;2024-02-23T12:29:55;18.30;58.70
69054;DHT22;56125;52.242;4.756;2024-02-23T12:34:56;18.30;58.60
69054;DHT22;56125;52.242;4.756;2024-02-23T12:39:57;18.30;58.10
69054;DHT22;56125;52.242;4.756;2024-02-23T12:44:58;18.30;58.20
69054;DHT22;56125;52.242;4.756;2024-02-23T12:49:59;18.40;57.80
69054;DHT22;56125;52.242;4.756;2024-02-23T12:55:00;18.40;58.50
69054;DHT22;56125;52.242;4.756;2024-02-23T13:00:01;18.40;58.40
69054;DHT22;56125;52.242;4.756;2024-02-23T13:05:03;18.90;58.40
69054;DHT22;56125;52.242;4.756;2024-02-23T13:10:04;18.40;57.40
69054;DHT22;56125;52.242;4.756;2024-02-23T13:15:06;18.40;57.30
69054;DHT22;56125;52.242;4.756;2024-02-23T13:20:07;18.40;58.00
69054;DHT22;56125;52.242;4.756;2024-02-23T13:25:09;18.40;57.60
69054;DHT22;56125;52.242;4.756;2024-02-23T13:30:10;18.40;57.60
69054;DHT22;56125;52.242;4.756;2024-02-23T13:35:12;18.40;57.40
69054;DHT22;56125;52.242;4.756;2024-02-23T13:40:14;18.40;59.50
69054;DHT22;56125;52.242;4.756;2024-02-23T13:45:16;18.40;60.40
69054;DHT22;56125;52.242;4.756;2024-02-23T13:50:18;18.40;60.50
69054;DHT22;56125;52.242;4.756;2024-02-23T13:55:19;18.40;61.60
69054;DHT22;56125;52.242;4.756;2024-02-23T14:00:21;18.40;61.50
69054;DHT22;56125;52.242;4.756;2024-02-23T14:05:22;18.40;61.30
69054;DHT22;56125;52.242;4.756;2024-02-23T14:10:26;18.40;60.00
69054;DHT22;56125;52.242;4.756;2024-02-23T14:15:27;18.40;60.80
69054;DHT22;56125;52.242;4.756;2024-02-23T14:20:28;18.50;61.30
69054;DHT22;56125;52.242;4.756;2024-02-23T14:25:29;18.40;62.00
69054;DHT22;56125;52.242;4.756;2024-02-23T14:30:30;17.60;60.50
69054;DHT22;56125;52.242;4.756;2024-02-23T14:35:31;18.40;59.70
69054;DHT22;56125;52.242;4.756;2024-02-23T14:40:32;18.40;59.00
69054;DHT22;56125;52.242;4.756;2024-02-23T14:45:33;18.40;59.30
69054;DHT22;56125;52.242;4.756;2024-02-23T14:50:34;18.40;60.50
69054;DHT22;56125;52.242;4.756;2024-02-23T14:55:35;18.40;59.50
69054;DHT22;56125;52.242;4.756;2024-02-23T15:00:36;18.40;59.30
69054;DHT22;56125;52.242;4.756;2024-02-23T15:05:37;18.70;60.60
69054;DHT22;56125;52.242;4.756;2024-02-23T15:10:38;18.50;61.00
69054;DHT22;56125;52.242;4.756;2024-02-23T15:15:39;18.50;61.60
69054;DHT22;56125;52.242;4.756;2024-02-23T15:20:41;18.40;61.30
69054;DHT22;56125;52.242;4.756;2024-02-23T15:25:43;18.40;61.00
69054;DHT22;56125;52.242;4.756;2024-02-23T15:30:44;18.40;60.90
69054;DHT22;56125;52.242;4.756;2024-02-23T15:35:45;18.40;61.50
69054;DHT22;56125;52.242;4.756;2024-02-23T15:40:46;18.40;61.60
69054;DHT22;56125;52.242;4.756;2024-02-23T15:45:48;18.40;60.10
69054;DHT22;56125;52.242;4.756;2024-02-23T15:50:50;18.40;62.00
69054;DHT22;56125;52.242;4.756;2024-02-23T15:55:51;18.40;61.80
69054;DHT22;56125;52.242;4.756;2024-02-23T16:00:52;18.40;61.90
69054;DHT22;56125;52.242;4.756;2024-02-23T16:05:54;18.40;62.80
69054;DHT22;56125;52.242;4.756;2024-02-23T16:10:55;18.40;61.90
69054;DHT22;56125;52.242;4.756;2024-02-23T16:15:57;18.40;61.90
69054;DHT22;56125;52.242;4.756;2024-02-23T16:20:58;18.40;62.10
69054;DHT22;56125;52.242;4.756;2024-02-23T16:26:02;18.40;61.50
69054;DHT22;56125;52.242;4.756;2024-02-23T16:31:04;18.40;61.80
69054;DHT22;56125;52.242;4.756;2024-02-23T16:36:05;18.40;61.00
69054;DHT22;56125;52.242;4.756;2024-02-23T16:41:06;18.30;60.80
69054;DHT22;56125;52.242;4.756;2024-02-23T16:46:07;18.30;60.20
69054;DHT22;56125;52.242;4.756;2024-02-23T16:51:08;18.30;60.50
69054;DHT22;56125;52.242;4.756;2024-02-23T16:56:09;18.30;60.80
69054;DHT22;56125;52.242;4.756;2024-02-23T17:01:11;18.30;60.80
69054;DHT22;56125;52.242;4.756;2024-02-23T17:06:12;18.30;61.10
69054;DHT22;56125;52.242;4.756;2024-02-23T17:11:13;18.30;60.90
69054;DHT22;56125;52.242;4.756;2024-02-23T17:16:14;18.20;61.50
69054;DHT22;56125;52.242;4.756;2024-02-23T17:21:15;18.20;61.00
69054;DHT22;56125;52.242;4.756;2024-02-23T17:26:16;18.20;61.00
69054;DHT22;56125;52.242;4.756;2024-02-23T17:31:17;18.20;61.10
69054;DHT22;56125;52.242;4.756;2024-02-23T17:36:18;18.20;60.80
69054;DHT22;56125;52.242;4.756;2024-02-23T17:41:19;18.20;61.00
69054;DHT22;56125;52.242;4.756;2024-02-23T17:46:20;18.10;60.40
69054;DHT22;56125;52.242;4.756;2024-02-23T17:51:21;18.10;60.80
69054;DHT22;56125;52.242;4.756;2024-02-23T17:56:22;18.10;60.90
69054;DHT22;56125;52.242;4.756;2024-02-23T18:01:23;18.10;60.60
69054;DHT22;56125;52.242;4.756;2024-02-23T18:06:24;18.10;60.20
69054;DHT22;56125;52.242;4.756;2024-02-23T18:11:26;18.00;60.30
69054;DHT22;56125;52.242;4.756;2024-02-23T18:16:27;18.00;59.90
69054;DHT22;56125;52.242;4.756;2024-02-23T18:21:30;18.00;60.40
69054;DHT22;56125;52.242;4.756;2024-02-23T18:26:31;18.00;60.20
69054;DHT22;56125;52.242;4.756;2024-02-23T18:31:32;18.40;60.50
69054;DHT22;56125;52.242;4.756;2024-02-23T18:36:33;18.00;60.10
69054;DHT22;56125;52.242;4.756;2024-02-23T18:41:35;17.50;60.10
69054;DHT22;56125;52.242;4.756;2024-02-23T18:46:36;17.90;59.90
69054;DHT22;56125;52.242;4.756;2024-02-23T18:51:37;17.90;60.10
69054;DHT22;56125;52.242;4.756;2024-02-23T18:56:38;17.90;59.90
69054;DHT22;56125;52.242;4.756;2024-02-23T19:01:39;17.90;59.50
69054;DHT22;56125;52.242;4.756;2024-02-23T19:06:40;18.30;59.40
69054;DHT22;56125;52.242;4.756;2024-02-23T19:11:41;17.90;59.60
69054;DHT22;56125;52.242;4.756;2024-02-23T19:16:43;17.90;59.60
69054;DHT22;56125;52.242;4.756;2024-02-23T19:21:44;17.90;59.20
69054;DHT22;56125;52.242;4.756;2024-02-23T19:26:45;17.90;59.20
69054;DHT22;56125;52.242;4.756;2024-02-23T19:31:47;17.80;59.20
69054;DHT22;56125;52.242;4.756;2024-02-23T19:36:48;17.80;59.20
69054;DHT22;56125;52.242;4.756;2024-02-23T19:41:49;17.80;59.10
69054;DHT22;56125;52.242;4.756;2024-02-23T19:46:50;17.80;59.20
69054;DHT22;56125;52.242;4.756;2024-02-23T19:51:51;17.90;59.10
69054;DHT22;56125;52.242;4.756;2024-02-23T19:56:53;17.80;58.80
69054;DHT22;56125;52.242;4.756;2024-02-23T20:01:54;17.80;58.60
69054;DHT22;56125;52.242;4.756;2024-02-23T20:06:55;17.80;59.00
69054;DHT22;56125;52.242;4.756;2024-02-23T20:11:56;17.80;59.20
69054;DHT22;56125;52.242;4.756;2024-02-23T20:16:57;17.80;58.80
69054;DHT22;56125;52.242;4.756;2024-02-23T20:21:58;17.80;58.40
69054;DHT22;56125;52.242;4.756;2024-02-23T20:26:59;17.70;58.70
69054;DHT22;56125;52.242;4.756;2024-02-23T20:32:01;17.70;58.30
69054;DHT22;56125;52.242;4.756;2024-02-23T20:37:03;17.80;58.50
69054;DHT22;56125;52.242;4.756;2024-02-23T20:42:05;17.70;58.20
69054;DHT22;56125;52.242;4.756;2024-02-23T20:47:07;17.70;58.40
69054;DHT22;56125;52.242;4.756;2024-02-23T20:52:08;17.70;58.10
69054;DHT22;56125;52.242;4.756;2024-02-23T20:57:15;17.60;58.10
69054;DHT22;56125;52.242;4.756;2024-02-23T21:02:17;17.70;58.20
69054;DHT22;56125;52.242;4.756;2024-02-23T21:07:22;17.70;58.00
69054;DHT22;56125;52.242;4.756;2024-02-23T21:12:23;17.70;58.10
69054;DHT22;56125;52.242;4.756;2024-02-23T21:17:24;17.60;58.00
69054;DHT22;56125;52.242;4.756;2024-02-23T21:22:25;17.60;57.90
69054;DHT22;56125;52.242;4.756;2024-02-23T21:27:26;17.60;57.90
69054;DHT22;56125;52.242;4.756;2024-02-23T21:32:27;17.60;57.90
69054;DHT22;56125;52.242;4.756;2024-02-23T21:37:30;17.60;57.70
69054;DHT22;56125;52.242;4.756;2024-02-23T21:42:32;17.00;57.40
69054;DHT22;56125;52.242;4.756;2024-02-23T21:47:33;16.90;57.40
69054;DHT22;56125;52.242;4.756;2024-02-23T21:52:34;17.60;57.90
69054;DHT22;56125;52.242;4.756;2024-02-23T21:57:38;17.60;57.80
69054;DHT22;56125;52.242;4.756;2024-02-23T22:02:39;17.60;57.80
69054;DHT22;56125;52.242;4.756;2024-02-23T22:07:40;17.60;57.80
69054;DHT22;56125;52.242;4.756;2024-02-23T22:12:42;17.60;57.60
69054;DHT22;56125;52.242;4.756;2024-02-23T22:17:43;17.60;57.80
69054;DHT22;56125;52.242;4.756;2024-02-23T22:22:45;17.50;57.60
69054;DHT22;56125;52.242;4.756;2024-02-23T22:27:46;16.90;57.20
69054;DHT22;56125;52.242;4.756;2024-02-23T22:32:47;17.50;57.60
69054;DHT22;56125;52.242;4.756;2024-02-23T22:37:49;17.40;57.50
69054;DHT22;56125;52.242;4.756;2024-02-23T22:42:50;17.50;57.70
69054;DHT22;56125;52.242;4.756;2024-02-23T22:47:51;17.50;57.60
69054;DHT22;56125;52.242;4.756;2024-02-23T22:52:52;17.50;57.50
69054;DHT22;56125;52.242;4.756;2024-02-23T22:57:53;17.50;57.60
69054;DHT22;56125;52.242;4.756;2024-02-23T23:02:54;17.50;57.30
69054;DHT22;56125;52.242;4.756;2024-02-23T23:07:55;17.50;57.60
69054;DHT22;56125;52.242;4.756;2024-02-23T23:12:56;17.50;57.20
69054;DHT22;56125;52.242;4.756;2024-02-23T23:17:57;18.40;57.60
69054;DHT22;56125;52.242;4.756;2024-02-23T23:22:58;17.50;57.10
69054;DHT22;56125;52.242;4.756;2024-02-23T23:27:59;17.50;57.20
69054;DHT22;56125;52.242;4.756;2024-02-23T23:33:00;17.50;57.20
69054;DHT22;56125;52.242;4.756;2024-02-23T23:38:02;17.50;57.10
69054;DHT22;56125;52.242;4.756;2024-02-23T23:43:03;17.40;57.10
69054;DHT22;56125;52.242;4.756;2024-02-23T23:48:04;17.40;57.10
69054;DHT22;56125;52.242;4.756;2024-02-23T23:53:06;17.40;57.00
69054;DHT22;56125;52.242;4.756;2024-02-23T23:58:07;17.40;56.80
